»·PEaware :: N933VL KLAX-KSNA

N933VL :: KLAX-KSNA

FLIGHT INFORMATION

Flight Status: Arrived
Operator: Privately registered:
United States
More flights under this callsign
Pilot: Greg C. (27677)
Aircraft: CESSNA 172 SKYHAWK
(C172)
More flights by this aircraft type
Origin: KLAX Los Angeles Intl
United States
Destination: KSNA John Wayne-Orange Co
United States
More flights between these airports :: More routes between these airports
Route: SLI8 SLI
File this flight plan on PilotEdge
Remarks: I-6 RATING
Altitude:
(Current/Filed)
4,000ft
Speed:
(Current/Filed)
115kts
Departed: 09-Feb-20 04:07 PM
Arrived: 09-Feb-20 04:54 PM
Distance/Time
Traveled:
31nm/0:47
Distance/Time
To Go:
Arrived

Flight Plot

Page will automatically refresh every two minutes.

Flight plan parsing failed; only flown route is shown


Map Options




Map Legend


Flown Route
Filed Route
Departure Airport
Arrival Airport
Navaid (VOR, NDB)
Fix

Horizontal Profiles

Position Reports

Time Latitude Longitude Heading Altitude Ground
Speed
09-Feb-20 14:51 33.933621 -118.399879 174 112ft 0kts
09-Feb-20 14:51 33.933621 -118.399879 174 112ft 0kts
09-Feb-20 14:52 33.933621 -118.399879 174 112ft 0kts
09-Feb-20 14:54 33.933621 -118.399879 174 112ft 0kts
09-Feb-20 14:54 33.933621 -118.399879 174 112ft 0kts
09-Feb-20 14:55 33.933621 -118.399879 174 112ft 0kts
09-Feb-20 14:56 33.933621 -118.399879 174 112ft 0kts
09-Feb-20 14:57 33.933621 -118.399879 174 112ft 0kts
09-Feb-20 14:58 33.933621 -118.399879 174 112ft 0kts
09-Feb-20 14:59 33.933621 -118.399879 174 112ft 0kts
09-Feb-20 15:00 33.933621 -118.399879 174 112ft 0kts
09-Feb-20 15:01 33.933621 -118.399879 174 112ft 0kts
09-Feb-20 15:02 33.933621 -118.399879 174 112ft 0kts
09-Feb-20 15:03 33.933621 -118.399879 174 112ft 0kts
09-Feb-20 15:04 33.933621 -118.399879 174 112ft 0kts
09-Feb-20 15:05 33.933621 -118.399879 174 112ft 0kts
09-Feb-20 15:06 33.933621 -118.399879 174 112ft 0kts
09-Feb-20 15:07 33.933621 -118.399879 174 112ft 0kts
09-Feb-20 15:08 33.933621 -118.399879 174 112ft 0kts
09-Feb-20 15:09 33.933621 -118.399879 174 112ft 0kts
09-Feb-20 15:10 33.933621 -118.399879 174 112ft 0kts
09-Feb-20 15:11 33.933621 -118.399879 174 112ft 0kts
09-Feb-20 15:12 33.933621 -118.399879 174 112ft 0kts
09-Feb-20 15:13 33.933621 -118.399879 174 112ft 0kts
09-Feb-20 15:14 33.933621 -118.399879 174 112ft 0kts
09-Feb-20 15:15 33.933621 -118.399879 174 112ft 0kts
09-Feb-20 15:16 33.933621 -118.399879 174 112ft 0kts
09-Feb-20 15:17 33.933621 -118.399879 174 112ft 0kts
09-Feb-20 15:18 33.933621 -118.399879 174 112ft 0kts
09-Feb-20 15:19 33.933621 -118.399879 174 112ft 0kts
09-Feb-20 15:20 33.933621 -118.399879 174 112ft 0kts
09-Feb-20 15:21 33.933621 -118.399879 174 112ft 0kts
09-Feb-20 15:22 33.933621 -118.399879 174 112ft 0kts
09-Feb-20 15:23 33.933621 -118.399879 174 112ft 0kts
09-Feb-20 15:24 33.933621 -118.399879 174 112ft 0kts
09-Feb-20 15:25 33.933621 -118.399879 174 112ft 0kts
09-Feb-20 15:26 33.933621 -118.399879 174 112ft 0kts
09-Feb-20 15:27 33.933621 -118.399879 174 112ft 0kts
09-Feb-20 15:28 33.933621 -118.399879 174 112ft 0kts
09-Feb-20 15:29 33.933621 -118.399879 174 112ft 0kts
09-Feb-20 15:30 33.933621 -118.399879 174 112ft 0kts
09-Feb-20 15:31 33.933621 -118.399879 174 112ft 0kts
09-Feb-20 15:32 33.933621 -118.399879 174 112ft 0kts
09-Feb-20 15:33 33.933621 -118.399879 174 112ft 0kts
09-Feb-20 15:34 33.933621 -118.399879 174 112ft 0kts
09-Feb-20 15:35 33.933621 -118.399879 174 112ft 0kts
09-Feb-20 15:36 33.933621 -118.399879 174 112ft 0kts
09-Feb-20 15:37 33.933621 -118.399879 174 112ft 0kts
09-Feb-20 15:38 33.933621 -118.399879 174 112ft 0kts
09-Feb-20 15:39 33.933621 -118.399879 174 112ft 0kts
09-Feb-20 15:40 33.933621 -118.399879 174 112ft 0kts
09-Feb-20 15:41 33.933621 -118.399879 174 112ft 0kts
09-Feb-20 15:42 33.933621 -118.399879 174 112ft 0kts
09-Feb-20 15:43 33.933621 -118.399879 174 112ft 0kts
09-Feb-20 15:44 33.933621 -118.399879 174 112ft 0kts
09-Feb-20 15:45 33.933621 -118.399879 174 112ft 0kts
09-Feb-20 15:46 33.934501 -118.397903 72 109ft 14kts
09-Feb-20 15:47 33.935411 -118.389631 82 101ft 37kts
09-Feb-20 15:48 33.936444 -118.382878 19 96ft 0kts
09-Feb-20 15:49 33.936444 -118.382878 19 96ft 0kts
09-Feb-20 15:50 33.936444 -118.382878 19 96ft 0kts
09-Feb-20 15:51 33.936444 -118.382878 19 96ft 0kts
09-Feb-20 15:52 33.936444 -118.382878 19 96ft 0kts
09-Feb-20 15:53 33.936444 -118.382878 19 96ft 0kts
09-Feb-20 15:54 33.936444 -118.382878 19 96ft 0kts
09-Feb-20 15:55 33.936444 -118.382878 19 96ft 0kts
09-Feb-20 15:56 33.936444 -118.382878 19 96ft 0kts
09-Feb-20 15:57 33.936444 -118.382878 19 96ft 0kts
09-Feb-20 15:58 33.936444 -118.382878 19 96ft 0kts
09-Feb-20 15:59 33.936444 -118.382878 19 96ft 0kts
09-Feb-20 16:00 33.936444 -118.382878 19 96ft 0kts
09-Feb-20 16:01 33.936444 -118.382878 19 96ft 0kts
09-Feb-20 16:02 33.936444 -118.382878 19 96ft 0kts
09-Feb-20 16:03 33.936444 -118.382878 19 96ft 0kts
09-Feb-20 16:04 33.936444 -118.382878 19 96ft 0kts
09-Feb-20 16:05 33.937244 -118.383433 281 96ft 15kts
09-Feb-20 16:06 33.935615 -118.404720 260 792ft 83kts
09-Feb-20 16:07 33.931117 -118.434946 219 2165ft 80kts
09-Feb-20 16:08 33.911903 -118.454658 213 3001ft 122kts
09-Feb-20 16:09 33.882295 -118.482148 211 2993ft 135kts
09-Feb-20 16:10 33.851429 -118.484700 172 3416ft 100kts
09-Feb-20 16:11 33.830091 -118.476937 141 3831ft 74kts
09-Feb-20 16:12 33.807339 -118.459777 141 4001ft 124kts
09-Feb-20 16:13 33.781202 -118.432354 104 3997ft 120kts
09-Feb-20 16:14 33.772640 -118.394506 102 3999ft 114kts
09-Feb-20 16:15 33.764415 -118.358086 102 3998ft 105kts
09-Feb-20 16:16 33.756835 -118.325700 101 3998ft 94kts
09-Feb-20 16:17 33.749866 -118.296505 101 3999ft 88kts
09-Feb-20 16:18 33.743261 -118.268259 101 3998ft 86kts
09-Feb-20 16:19 33.736918 -118.240227 101 3997ft 86kts
09-Feb-20 16:20 33.730818 -118.212222 101 3996ft 85kts
09-Feb-20 16:21 33.724983 -118.184264 101 3995ft 85kts
09-Feb-20 16:22 33.719478 -118.156596 101 3994ft 84kts
09-Feb-20 16:23 33.714333 -118.128839 94 3991ft 84kts
09-Feb-20 16:24 33.733112 -118.110946 34 3992ft 92kts
09-Feb-20 16:25 33.755467 -118.094747 42 4001ft 113kts
09-Feb-20 16:26 33.779618 -118.066611 67 3990ft 119kts
09-Feb-20 16:27 33.793096 -118.031645 69 3992ft 114kts
09-Feb-20 16:28 33.806080 -117.999052 67 3993ft 113kts
09-Feb-20 16:29 33.819845 -117.965630 66 3993ft 112kts
09-Feb-20 16:30 33.833183 -117.933223 66 3993ft 112kts
09-Feb-20 16:31 33.847009 -117.899585 66 3994ft 112kts
09-Feb-20 16:32 33.860756 -117.866116 66 3993ft 112kts
09-Feb-20 16:33 33.874528 -117.832508 66 3993ft 111kts
09-Feb-20 16:34 33.887561 -117.800812 66 3987ft 90kts
09-Feb-20 16:35 33.898072 -117.775282 66 3992ft 84kts
09-Feb-20 16:36 33.908327 -117.750294 66 3994ft 83kts
09-Feb-20 16:37 33.918584 -117.725255 66 3994ft 83kts
09-Feb-20 16:38 33.932253 -117.705545 32 4054ft 79kts
09-Feb-20 16:39 33.955335 -117.696397 33 4015ft 88kts
09-Feb-20 16:40 33.978400 -117.704554 271 3488ft 114kts
09-Feb-20 16:41 33.962573 -117.714862 141 3492ft 72kts
09-Feb-20 16:42 33.940933 -117.708588 161 3481ft 84kts
09-Feb-20 16:43 33.917061 -117.714140 203 3357ft 93kts
09-Feb-20 16:44 33.891369 -117.731313 203 3433ft 122kts
09-Feb-20 16:45 33.863907 -117.749219 201 3353ft 103kts
09-Feb-20 16:46 33.835033 -117.767602 202 3408ft 127kts
09-Feb-20 16:47 33.803904 -117.787511 201 2783ft 117kts
09-Feb-20 16:49 33.776029 -117.805205 200 2184ft 112kts
09-Feb-20 16:50 33.748605 -117.822647 201 1601ft 105kts
09-Feb-20 16:51 33.725788 -117.837136 198 1076ft 82kts
09-Feb-20 16:52 33.706459 -117.849358 198 649ft 76kts
09-Feb-20 16:53 33.688253 -117.860929 201 252ft 69kts
09-Feb-20 16:54 33.675821 -117.869103 254 60ft 19kts
09-Feb-20 16:55 33.675985 -117.869798 303 60ft 0kts
09-Feb-20 16:56 33.675927 -117.871194 189 60ft 5kts

Navigation Log

Ident Type
Flight plan parsing failed, navigation log unavailable